Tiempo atmosférico en la estación meteorológica de Gijón, Campus, Asturias (26 m.)



Fecha
DESCASC
Temp. máxima en grados centígrados (hora)
DESCASC
Temp. mínima en grados centígrados (hora)
DESCASC
Temp. media en grados centígrados
DESCASC
Racha de viento máxima en m/sg (hora)
DESCASC
Velocidad máxima media en intervalos de 10 minutos(hora)
DESCASC
Precipitaciones diarias en mm
DESCASC
Precipitaciones de 00:00 a 06:00 en mm
DESCASC
Precipitaciones de 06:00 a 12:00 en mm
DESCASC
Precipitaciones de 12:00 a 18:00 en mm
DESCASC
Precipitaciones de 18:00 a 24:00 en mm
DESCASC
16-01-2020 21.1 (12:20) 4.6 (00:50) 12.9 12.22 (14:00) 5.56 (14:20) 4.4 0 0.2 0 4.2
15-01-2020 17.1 (07:10) 5.2 (23:59) 11.2 14.17 (08:20) 7.78 (08:20) 2.4 0 2.4 0 0
14-01-2020 18.3 (14:40) 6.7 (00:00) 12.5 13.61 (23:30) 5.28 (21:50) 0.4 0 0.4 0 0
13-01-2020 16.4 (16:00) 2.8 (00:20) 9.6 3.06 (12:40) 2.22 (18:20) 0 0 0 0 0
12-01-2020 15.8 (15:00) -0.7 (-00:0) 7.6 2.78 (15:10) 2.22 (06:30) 0 0 0 0 0
11-01-2020 13.3 (15:30) -0.4 (00:00) 6.5 3.61 (16:40) 2.22 (17:00) 0 0 0 0 0
10-01-2020 12.1 (16:20) 2.7 (00:00) 7.4 6.94 (01:00) 3.33 (01:00) -- -- 2.8 0.6 0
09-01-2020 19.1 (12:50) 5 (00:00) 12.1 17.5 (14:20) 8.61 (14:30) 0.2 0 0 0 0.2
08-01-2020 16.9 (15:30) 2.6 (00:00) 9.7 3.33 (15:00) 2.22 (15:00) 0 0 0 0 0
07-01-2020 -- (--) -- (--) -- -- (--) -- (--) -- -- 0 0 0
06-01-2020 -- (--) -- (--) -- -- (--) -- (--) -- -- -- -- --
05-01-2020 13 (15:00) 1.6 (00:00) 7.3 7.5 (13:00) 3.89 (13:20) -- 0 0 -- 0
04-01-2020 11.5 (16:50) 3.2 (00:00) 7.4 6.67 (16:50) 3.61 (17:00) 2.8 0 1.8 1 0
03-01-2020 13.4 (16:10) 3.4 (00:00) 8.4 3.61 (16:20) 2.22 (05:10) 0.2 0 0.2 0 0
02-01-2020 12.4 (15:10) -0.8 (-00:0) 5.8 3.33 (21:20) 2.22 (21:30) -- 0 0 -- 0
01-01-2020 12.5 (14:10) 1.6 (00:00) 7.1 4.17 (14:00) 2.5 (14:50) -- 0 -- 0 0
31-12-2019 15.4 (14:30) 1.8 (00:00) 8.6 3.89 (15:00) 2.5 (15:00) 0 0 0 0 0
30-12-2019 -- (--) -- (--) -- -- (--) -- (--) -- 0 0 0 --
29-12-2019 15.4 (15:20) -1.4 (-00:0) 7 2.78 (04:50) 2.5 (04:50) -- -- 0 0 0
28-12-2019 14.9 (15:30) -0.8 (-00:0) 7 2.78 (16:00) 2.22 (06:30) 0 0 0 0 0
27-12-2019 13.9 (15:00) -0.3 (00:00) 6.8 6.11 (16:30) 3.61 (16:00) -- 0 0 -- 0
26-12-2019 15.4 (13:10) 2.9 (00:00) 9.1 6.39 (02:40) 3.33 (01:40) -- 0 0 0 --
25-12-2019 17.4 (14:20) 6.6 (00:00) 12 6.11 (22:30) 2.78 (22:40) 0 0 0 0 0
24-12-2019 19.9 (15:10) 6.2 (00:00) 13 4.44 (15:50) 3.06 (15:50) 0 0 0 0 0
23-12-2019 15.3 (16:20) 7.4 (00:00) 11.4 5.83 (21:00) 3.06 (00:10) 0 0 0 0 0
22-12-2019 17.4 (12:40) 10.8 (00:00) 14.1 20.28 (12:40) 10 (12:30) -- -- 0 1.8 0
21-12-2019 17.4 (13:10) 6.9 (00:00) 12.1 23.61 (14:40) 10.83 (20:50) 5.6 0 0.2 2.6 2.8
20-12-2019 13 (11:20) 9.1 (00:00) 11.1 13.06 (05:30) 6.67 (05:30) 7 3 0 1.2 2.8
19-12-2019 18 (17:40) 9.5 (09:10) 13.8 12.22 (17:10) 4.72 (17:10) 9.2 4 0.8 0 4.4

Gráficas

Temp. máximas Temp. mínimas Temp. medias Precipitaciones Rachas de viento máximas Velocidades máximas media en intervalos de 10 minutos

Datos horarios

Fecha y hora oficial Temperatura (ºC) Velocidad del viento (km/h) Dirección del viento Racha (km/h) Dirección de racha Precipitación (mm) Presión (hPa) Tendencia (hPa) Humedad (%)
2020-01-17 23:00:00 5.7 0 Calma 5 Sudeste 0 1027.2 -0.9 95
2020-01-17 22:00:00 5.7 6 Sudeste 8 Este 0 1027.6 -0.6 92
2020-01-17 21:00:00 6.4 5 Sudeste 8 Sudeste 0 1028.1 0.2 90
2020-01-17 20:00:00 7.3 5 Sudeste 8 Sudeste 0 1028.1 0.5 85
2020-01-17 19:00:00 9 5 Sudeste 15 Oeste 0 1028.2 1.1 76
2020-01-17 18:00:00 10.9 8 Oeste 24 Noroeste 0 1027.9 1.5 67
2020-01-17 17:00:00 11.6 9 Noroeste 22 Noroeste 0 1027.6 0.9 62
2020-01-17 16:00:00 12.2 12 Noroeste 31 Oeste 0 1027.1 0.5 56
2020-01-17 15:00:00 13.9 15 Oeste 31 Noroeste 0 1026.4 -0.6 45
2020-01-17 14:00:00 12.9 14 Oeste 44 Oeste 0 1026.7 0.7 51
2020-01-17 13:00:00 12.3 15 Oeste 30 Oeste 0 1026.6 1.4 54
2020-01-17 12:00:00 10.9 14 Oeste 31 Oeste 0 1027 2.9 59
2020-01-17 11:00:00 11.3 8 Sudoeste 22 Oeste 0 1026 3.4 62
2020-01-17 10:00:00 10 9 Oeste 27 Sudoeste 0 1025.2 3.6 64
2020-01-17 09:00:00 9.4 9 Oeste 25 Sudoeste 0 1024.1 3.1 69
2020-01-17 08:00:00 9.2 4 Sudoeste 14 Sudoeste 0 1022.6 2.8 74
2020-01-17 07:00:00 10 5 Sudoeste 34 Oeste 0 1021.6 2.3 70
2020-01-17 06:00:00 10.4 5 Sudoeste 24 Sudoeste 0.2 1021 2.4 72
2020-01-17 05:00:00 11.1 11 Sudoeste 25 Sur 0 1019.8 2.2 67
2020-01-17 04:00:00 10.9 5 Sudoeste 22 Noroeste 0 1019.3 2.4 74
2020-01-17 03:00:00 11.1 14 Noroeste 32 Noroeste 0 1018.6 2.7 72
2020-01-17 02:00:00 10.7 6 Sudoeste 13 Sudoeste 0 1017.6 2.1 76
2020-01-17 01:00:00 9.5 3 Sur 12 Norte 0 1016.9 2.1 92
2020-01-17 00:00:00 10.7 4 Sur 9 Sur 0 1015.9 1.8 89
2020-01-16 23:00:00 10.6 3 Norte 13 Sur 0 1015.5 0.9 93
2020-01-16 22:00:00 11.1 8 Oeste 14 Noroeste 0 1014.8 0.6 93
2020-01-16 21:00:00 10.8 7 Sur 17 Oeste 3.2 1014.1 2.2 95
2020-01-16 20:00:00 11.6 10 Oeste 33 Noroeste 0.8 1014.6 3.9 87
2020-01-16 19:00:00 12.8 8 Norte 19 Nordeste 0.2 1014.2 4 89
2020-01-16 18:00:00 13.6 15 Norte 28 Nordeste 0 1011.9 1.5 81
2020-01-16 17:00:00 18.6 12 Sur 35 Sur 0 1010.7 -0.1 39
2020-01-16 16:00:00 19.1 13 Sur 31 Sudeste 0 1010.2 -1.7 39
2020-01-16 15:00:00 19.6 14 Sur 44 Sudoeste 0 1010.4 -2.2 39
2020-01-16 14:00:00 19.7 20 Sur 44 Sur 0 1010.8 -2.4 40
2020-01-16 13:00:00 20.3 15 Sur 32 Sur 0 1011.9 -1.1 41
2020-01-16 12:00:00 20.3 7 Sur 31 Sur 0.2 1012.6 0.1 40
2020-01-16 11:00:00 18.9 14 Sur 35 Sur 0 1013.2 0.5 41
2020-01-16 10:00:00 17.5 8 Sur 28 Sur 0 1013 0.7 49
2020-01-16 09:00:00 17.3 10 Sur 27 Sudeste 0 1012.5 -0.2 50
2020-01-16 08:00:00 13 4 Este 11 Sur 0 1012.7 -0.4 66
2020-01-16 07:00:00 14.5 6 Sudeste 15 Sudeste 0 1012.3 -1.9 58
2020-01-16 06:00:00 16.5 10 Sur 25 Sudeste 0 1012.7 -1.3 49
2020-01-16 05:00:00 6.7 9 Sudeste 16 Sudeste 0 1013.1 -1.5 100
2020-01-16 04:00:00 5.9 5 Sudeste 12 Sudeste 0 1014.2 -1 100
2020-01-16 03:00:00 5.4 4 Norte 11 Sudeste 0 1014 -1.5 100
2020-01-16 02:00:00 4.9 3 Este 10 Este 0 1014.6 -1.8 99
2020-01-16 01:00:00 4.6 7 Sudeste 11 Sudeste 0 1015.2 -2 98
2020-01-16 00:00:00 5.2 2 Sudeste 4 Sudeste 0 1015.5 -1.8 96
2020-01-15 23:00:00 6.7 3 Oeste 7 Sudoeste 0 1016.4 -1.2 95
2020-01-15 22:00:00 9.1 5 Oeste 15 Este 0 1017.2 -0.4 89
2020-01-15 21:00:00 9.2 6 Nordeste 10 Norte 0 1017.3 0 91
2020-01-15 20:00:00 9.9 4 Este 8 Este 0 1017.6 0.2 91
2020-01-15 19:00:00 11.3 5 Nordeste 14 Este 0 1017.6 0.9 86
2020-01-15 18:00:00 12 6 Este 12 Este 0 1017.3 1.4 82
2020-01-15 17:00:00 12.6 5 Norte 14 Nordeste 0 1017.4 1.9 79
2020-01-15 16:00:00 12.9 7 Norte 17 Norte 0 1016.7 1 76
2020-01-15 15:00:00 12.9 8 Norte 16 Norte 0 1015.9 0.4 76
2020-01-15 14:00:00 13.2 8 Noroeste 17 Oeste 0 1015.5 1.4 75
2020-01-15 13:00:00 12.5 6 Oeste 20 Oeste 0 1015.7 2.8 80
2020-01-15 12:00:00 11.9 14 Oeste 27 Oeste 0 1015.5 3.7 86
2020-01-15 11:00:00 11.7 8 Noroeste 19 Noroeste 0 1014.1 5.4 90
2020-01-15 10:00:00 11 7 Sur 27 Oeste 2 1012.9 6.2 92
2020-01-15 09:00:00 11.9 8 Oeste 51 Noroeste 0.4 1011.8 5.9 83
2020-01-15 08:00:00 17 9 Sudoeste 28 Sur 0 1008.7 3.1 45
2020-01-15 07:00:00 17 13 Sur 32 Sur 0 1006.7 1.1 43
2020-01-15 06:00:00 16.8 10 Sur 37 Sudoeste 0 1005.9 0.2 43
2020-01-15 05:00:00 16.5 8 Sur 24 Sudeste 0 1005.6 0.1 43
2020-01-15 04:00:00 16.2 12 Sur 32 Sur 0 1005.6 -0.6 44
2020-01-15 03:00:00 16.6 15 Sur 36 Sur 0 1005.7 -1.2 43
2020-01-15 02:00:00 16.4 17 Sur 37 Sur 0 1005.5 -1.2 42
2020-01-15 01:00:00 15.8 14 Sur 37 Sur 0 1006.2 -1.6 42
2020-01-15 00:00:00 15.8 13 Sur 49 Sur 0 1006.9 -1.5 42
2020-01-14 23:00:00 15.6 17 Sur 36 Sur 0 1006.7 -1.7 42
2020-01-14 22:00:00 15.7 15 Sur 40 Sudoeste 0 1007.8 -0.4 43
2020-01-14 21:00:00 15.7 14 Sur 36 Sur 0 1008.4 0.6 42
2020-01-14 20:00:00 15.8 18 Sur 42 Sudoeste 0 1008.4 0.6 42
2020-01-14 19:00:00 15.7 14 Sur 36 Sudoeste 0 1008.2 0.7 41
2020-01-14 18:00:00 15.7 10 Sur 28 Sudeste 0 1007.8 0.3 41
2020-01-14 17:00:00 16.7 15 Sur 39 Sudoeste 0 1007.8 -0.6 39
2020-01-14 16:00:00 17.1 17 Sur 35 Sudoeste 0 1007.5 -1.7 35
2020-01-14 15:00:00 17.7 10 Sur 26 Sudoeste 0 1007.5 -2 36
2020-01-14 14:00:00 17.9 8 Sur 28 Sur 0 1008.4 -0.7 37
2020-01-14 13:00:00 13.9 3 Sudeste 12 Sur 0 1009.2 0.7 80
2020-01-14 12:00:00 12.1 7 Sudeste 14 Sur 0 1009.5 1.1 88
2020-01-14 11:00:00 10.9 3 Sur 9 Sudeste 0 1009.1 0.8 93
2020-01-14 10:00:00 9.2 3 Sudeste 8 Sudeste 0 1008.5 0.1 97
2020-01-14 09:00:00 8.4 5 Sudeste 9 Sudeste 0 1008.4 0.4 97
2020-01-14 08:00:00 8.5 4 Norte 6 Noroeste 0.4 1008.3 0.2 93
2020-01-14 07:00:00 8 3 Sur 7 Sur 0 1008.4 -0.1 95
2020-01-14 06:00:00 8.1 3 Oeste 9 Sudeste 0 1008 -0.5 89
2020-01-14 05:00:00 7.9 5 Este 10 Sudeste 0 1008.1 -0.9 87
2020-01-14 04:00:00 7.6 6 Sudeste 8 Sudeste 0 1008.5 -1.4 89
2020-01-14 03:00:00 7.3 5 Sudeste 9 Sudeste 0 1008.5 -1.7 89
2020-01-14 02:00:00 7.7 3 Sudeste 9 Sudeste 0 1009 -1.3 86
2020-01-14 01:00:00 7.3 9 Sudeste 11 Sudeste 0 1009.9 -0.5 86
2020-01-14 00:00:00 6.7 7 Sudeste 10 Sudeste 0 1010.2 -1.1 88
2020-01-13 23:00:00 7.1 4 Sudeste 9 Sudeste 0 1010.3 -1.4 88
2020-01-13 22:00:00 7.7 4 Noroeste 7 Norte 0 1010.4 -1 87
2020-01-13 21:00:00 6.8 4 Este 9 Sudeste 0 1011.3 0.2 92
2020-01-13 20:00:00 7 5 Sudeste 10 Sudeste 0 1011.7 0.7 90
2020-01-13 19:00:00 8.1 4 Sudeste 10 Sudeste 0 1011.4 -0.1 85
2020-01-13 18:00:00 11 6 Sudeste 8 Sudeste 0 1011.1 -1 77
2020-01-13 17:00:00 15.7 0 Calma 6 Sudeste 0 1011 -2.1 64
2020-01-13 16:00:00 16.4 3 Sudeste 4 Sudeste 0 1011.5 -3.4 58
2020-01-13 15:00:00 15.8 0 Calma 5 Sur 0 1012.1 -4.2 53
2020-01-13 14:00:00 14.8 0 Calma 9 Sudeste 0 1013.1 -4.1 60
2020-01-13 13:00:00 13.9 3 Nordeste 11 Noroeste 0 1014.9 -3.2 59
2020-01-13 12:00:00 11.4 4 Sudeste 8 Sudeste 0 1016.3 -1.5 70
2020-01-13 11:00:00 6.5 2 Noroeste 7 Sudeste 0 1017.2 -1 98
2020-01-13 10:00:00 3.6 4 Sudeste 9 Este 0 1018.1 -0.4 100
2020-01-13 09:00:00 3.5 2 Sudoeste 8 Sudeste 0 1017.8 -1.8 99
2020-01-13 08:00:00 3.8 6 Sudeste 8 Sudeste 0 1018.2 -1.9 99
2020-01-13 07:00:00 4.4 4 Este 6 Sudeste 0 1018.5 -2.5 99
2020-01-13 06:00:00 5.2 3 Sudeste 6 Este 0 1019.6 -2 98
2020-01-13 05:00:00 5.3 4 Sudeste 5 Sudeste 0 1020.1 -2.2 99
2020-01-13 04:00:00 5.1 3 Este 7 Sudeste 0 1021 -2.4 99
2020-01-13 03:00:00 4.7 4 Sudeste 7 Sudeste 0 1021.6 -2.7 99
2020-01-13 02:00:00 4.1 4 Sudeste 9 Sudeste 0 1022.3 -2.2 100
2020-01-13 01:00:00 3.4 4 Oeste 9 Sudeste 0 1023.4 -1.7 100
2020-01-13 00:00:00 3.2 2 Nordeste 8 Sudeste 0 1024.3 -1.1 98
2020-01-12 23:00:00 3.7 8 Sudeste 9 Sudeste 0 1024.5 -1.5 98
2020-01-12 22:00:00 4.6 4 Este 7 Sudeste 0 1025.1 -0.7 96
2020-01-12 21:00:00 6.2 3 Sudeste 9 Sudeste 0 1025.4 -0.5 93
2020-01-12 20:00:00 7.1 4 Sudeste 7 Sudeste 0 1026 0.2 90
2020-01-12 19:00:00 8.3 5 Sudeste 7 Sudeste 0 1025.8 0 84
2020-01-12 18:00:00 12.8 3 Nordeste 9 Nordeste 0 1025.9 -0.1 54
2020-01-12 17:00:00 15.1 6 Nordeste 10 Nordeste 0 1025.8 -0.7 55
2020-01-12 16:00:00 15.7 4 Norte 10 Noroeste 0 1025.8 -1.6 41
2020-01-12 15:00:00 15.8 3 Noroeste 5 Norte 0 1026 -2.4 43
2020-01-12 14:00:00 14.1 2 Norte 5 Norte 0 1026.5 -1.8 55
2020-01-12 13:00:00 11.9 2 Norte 5 Noroeste 0 1027.4 -0.7 60
2020-01-12 12:00:00 9.9 2 Nordeste 5 Sudeste 0 1028.4 0.7 69
2020-01-12 11:00:00 5.5 2 Sudeste 8 Sudeste 0 1028.3 0.6 100
2020-01-12 10:00:00 1 6 Sudeste 9 Sudeste 0 1028.1 0.6 100
2020-01-12 09:00:00 -0.3 3 Sudeste 8 Sudeste 0 1027.7 0.5 100
2020-01-12 08:00:00 -0.6 5 Sudeste 8 Sudeste 0 1027.7 0.4 100
2020-01-12 07:00:00 -0.4 4 Sudeste 9 Sudeste 0 1027.5 0 100
2020-01-12 06:00:00 -0.7 4 Sudeste 8 Sudeste 0 1027.2 -0.2 100
2020-01-12 05:00:00 -0.3 5 Sudeste 8 Sudeste 0 1027.3 0.1 100
2020-01-12 04:00:00 0.2 5 Sudeste 9 Sudeste 0 1027.5 -0.1 100
2020-01-12 03:00:00 0.4 3 Nordeste 9 Sudeste 0 1027.4 -0.4 100
2020-01-12 02:00:00 0.7 5 Sudeste 7 Sudeste 0 1027.2 -1 100
2020-01-12 01:00:00 1.2 5 Sudeste 8 Este 0 1027.6 -0.6 99
2020-01-12 00:00:00 2 5 Este 8 Sudeste 0 1027.8 -0.5 100
2020-01-11 23:00:00 2.4 0 Calma 6 Este 0 1028.2 0.1 99
2020-01-11 22:00:00 3 5 Sudeste 8 Este 0 1028.2 0.5 98
2020-01-11 21:00:00 3.9 6 Sudeste 8 Sudeste 0 1028.3 1 97
2020-01-11 20:00:00 5.1 6 Sudeste 7 Sudeste 0 1028.1 1.1 95
2020-01-11 19:00:00 6.6 6 Sudeste 8 Este 0 1027.7 1.1 91
2020-01-11 18:00:00 9.4 3 Sur 10 Noroeste 0 1027.3 0.7 80
2020-01-11 17:00:00 12 8 Noroeste 13 Noroeste 0 1027 -0.2 64
2020-01-11 16:00:00 13.2 2 Norte 5 Norte 0 1026.6 -1.5 63
2020-01-11 15:00:00 12.3 0 Calma 4 Norte 0 1026.6 -2.6 67
2020-01-11 14:00:00 11.2 3 Nordeste 5 Noroeste 0 1027.2 -2.2 70
2020-01-11 13:00:00 11 3 Este 5 Sudeste 0 1028.1 -1.4 71
2020-01-11 12:00:00 9.5 0 Calma 5 Sudeste 0 1029.2 -0.1 79
2020-01-11 11:00:00 5.4 3 Sudeste 6 Sudeste 0 1029.4 -0.1 100
2020-01-11 10:00:00 1.3 4 Sudeste 9 Sudeste 0 1029.5 -0.1 100
2020-01-11 09:00:00 -0.3 6 Sudeste 9 Sudeste 0 1029.3 -0.5 100
2020-01-11 08:00:00 -0.1 3 Sudeste 9 Sudeste 0 1029.5 -0.7 100
2020-01-11 07:00:00 0.1 3 Sudeste 9 Sudeste 0 1029.6 -0.7 100
2020-01-11 06:00:00 0.4 2 Sur 7 Sudeste 0 1029.8 -0.6 100
2020-01-11 05:00:00 0.6 4 Sudeste 7 Sudeste 0 1030.2 -0.5 100
2020-01-11 04:00:00 1 5 Sudeste 7 Sudeste 0 1030.3 -0.9 100
2020-01-11 03:00:00 1.3 0 Calma 6 Sudeste 0 1030.4 -1 100
2020-01-11 02:00:00 1.6 5 Sudeste 7 Sudeste 0 1030.7 -0.4 100
2020-01-11 01:00:00 2 4 Sudeste 6 Sudeste 0 1031.2 0.1 100
2020-01-11 00:00:00 2.7 3 Sudeste 6 Sudeste 0 1031.4 0.5 100
2020-01-10 23:00:00 3.4 6 Sudeste 8 Sudeste 0 1031.1 0.3 100
2020-01-10 22:00:00 4.1 6 Sudeste 8 Sudeste 0 1031.1 0.7 99
2020-01-10 21:00:00 5.1 3 Sudeste 7 Sudeste 0 1030.9 0.9 98
2020-01-10 20:00:00 6.5 5 Este 7 Sudeste 0 1030.8 0.8 98
2020-01-10 19:00:00 8.2 4 Sudeste 6 Sudeste 0 1030.4 0.7 96
2020-01-10 18:00:00 9.5 4 Sudeste 9 Sur 0 1030 0.6 93
2020-01-10 17:00:00 10.6 4 Sur 8 Este 0.4 1030 0.3 90
2020-01-10 16:00:00 11.1 4 Sur 9 Sudoeste 0 1029.7 -0.2 81
2020-01-10 15:00:00 10.5 5 Sudoeste 15 Sur 0.2 1029.4 -0.9 86
2020-01-10 14:00:00 11 7 Sudoeste 15 Sudoeste 0 1029.7 -0.4 80
2020-01-10 13:00:00 10.5 8 Sur 14 Sur 0 1029.9 0.8 81
2020-01-10 12:00:00 9.8 5 Sudoeste 11 Sur 0 1030.3 1.7 87
2020-01-10 11:00:00 9.1 8 Sur 17 Sur 0.6 1030.1 1.8 88
2020-01-10 10:00:00 8.6 3 Sudoeste 14 Sudoeste 0 1029.1 1.1 87
2020-01-10 09:00:00 7.9 5 Sudoeste 16 Sur 0 1028.6 1.5 89
2020-01-10 08:00:00 8 3 Oeste 15 Sur 0 1028.3 1.7 91
2020-01-10 07:00:00 7.9 8 Sur 15 Sur 2.2 1028 1.7 93
2020-01-10 06:00:00 8.1 6 Sur 13 Sudoeste 0.2 1027.1 1.5 86
2020-01-10 05:00:00 7.8 5 Sudoeste 17 Sur 1 1026.6 1.4 90
2020-01-10 04:00:00 9.1 9 Sudoeste 18 Sudoeste 0 1026.3 1.3 73
2020-01-10 03:00:00 8.8 6 Sudoeste 15 Sudoeste 0.4 1025.6 0.7 78
2020-01-10 02:00:00 8.9 6 Sudoeste -- -- -- 1025.2 1.1 80
2020-01-10 01:00:00 9.4 12 Oeste 25 Oeste 0.2 1025 1.4 77
2020-01-10 00:00:00 9.6 9 Sudoeste 27 Oeste 0.2 1024.9 2.2 76
2020-01-09 23:00:00 10.4 7 Sudoeste 20 Oeste 0 1024.1 2 64
2020-01-09 22:00:00 10.7 6 Sudoeste 33 Sudoeste 0 1023.6 2 61
2020-01-09 21:00:00 11.3 8 Sudoeste 19 Sudoeste 0 1022.7 1.8 58
2020-01-09 20:00:00 11.1 8 Sudoeste 18 Sudoeste 0 1022.1 2.2 60
2020-01-09 19:00:00 11 5 Sudoeste 20 Sudoeste 0 1021.6 2.4 65
2020-01-09 18:00:00 12.3 8 Sudoeste 44 Noroeste 0 1020.9 2.9 61
2020-01-09 17:00:00 13 26 Oeste 55 Oeste 0 1019.9 3.9 57
2020-01-09 16:00:00 12.1 22 Oeste 60 Oeste 0 1019.2 4.3 75
2020-01-09 15:00:00 12.3 20 Oeste 63 Noroeste 0 1018 2.3 75
2020-01-09 14:00:00 15.7 27 Noroeste 42 Noroeste 0 1016 -0.9 72
2020-01-09 13:00:00 17.8 9 Noroeste 17 Noroeste 0 1014.9 -2.4 56
2020-01-09 12:00:00 18.2 7 Sur 13 Sudoeste 0 1015.7 -1.9 52
2020-01-09 11:00:00 13.7 6 Sudeste 12 Sudeste 0 1016.9 -1.1 67
2020-01-09 10:00:00 8.1 4 Este 10 Sudeste 0 1017.3 -1.5 90
2020-01-09 09:00:00 5.8 4 Sudeste 10 Sudeste 0 1017.6 -1.3 95
2020-01-09 08:00:00 6.7 0 Calma 8 Sudeste 0 1018 -1.4 91
2020-01-09 07:00:00 8.3 5 Sudeste 14 Norte 0 1018.8 -1.6 85
2020-01-09 06:00:00 7 2 Sudeste 9 Sudeste 0 1018.9 -1.9 93
2020-01-09 05:00:00 6.1 6 Sudeste 9 Sudeste 0 1019.4 -2.1 96
2020-01-09 04:00:00 5.1 4 Sudeste 9 Sudeste 0 1020.4 -1.3 97
2020-01-09 03:00:00 5.4 5 Sudeste 10 Este 0 1020.8 -2 97
2020-01-09 02:00:00 5.6 6 Sudeste 9 Sudeste 0 1021.5 -2.1 96
2020-01-09 01:00:00 6.7 5 Nordeste 10 Sudeste 0 1021.7 -2.1 96
2020-01-09 00:00:00 7.4 6 Sudeste 9 Sudeste 0 1022.8 -1.3 94
2020-01-08 23:00:00 7.3 5 Sudeste 8 Sudeste 0 1023.6 -0.4 95
2020-01-08 22:00:00 8.1 4 Sudeste 9 Sudeste 0 1023.8 -0.1 93
2020-01-08 21:00:00 8.6 5 Sudeste 8 Sudeste 0 1024.1 0.1 91
2020-01-08 20:00:00 9.1 5 Sudeste 7 Sudeste 0 1024 0 89
2020-01-08 19:00:00 11.6 3 Sur 4 Sur 0 1023.9 -0.4 80
2020-01-08 18:00:00 13.8 0 Calma 6 Noroeste 0 1024 -0.4 66
2020-01-08 17:00:00 15 0 Calma 7 Nordeste 0 1024 -1.1 60
2020-01-08 16:00:00 15.7 6 Norte 10 Noroeste 0 1024.3 -1.9 52
2020-01-08 15:00:00 16.6 8 Noroeste 12 Noroeste 0 1024.4 -2.8 49
2020-01-08 14:00:00 16.6 4 Oeste 6 Oeste 0 1025.1 -2.4 52
2020-01-08 13:00:00 14.9 2 Oeste 5 Oeste 0 1026.2 -1 50
2020-01-08 12:00:00 12.7 2 Norte 4 Norte 0 1027.2 0.2 53
2020-01-08 11:00:00 10 2 Norte 5 Sudeste 0 1027.5 0.4 69
2020-01-08 10:00:00 5.5 2 Este 7 Este 0 1027.2 0.2 98
2020-01-08 09:00:00 4.4 2 Sudeste 8 Este 0 1027 0.1 98
2020-01-08 08:00:00 5.5 5 Sudeste 6 Sudeste 0 1027.1 0.2 97
2020-01-08 07:00:00 6.1 3 Sudeste 6 Sudeste 0 1027 -0.1 96
2020-01-08 06:00:00 5.5 4 Sudeste 6 Sudeste 0 1026.9 -0.2 98
2020-01-08 05:00:00 4.7 4 Sudeste 8 Sudeste 0 1026.9 -0.4 98
2020-01-08 04:00:00 3.6 3 Sudeste 8 Sudeste 0 1027.1 -0.5 100
2020-01-08 03:00:00 2.7 6 Sudeste 7 Sudeste 0 1027.1 -0.6 100
2020-01-08 02:00:00 2.7 5 Sudeste 8 Sudeste 0 1027.3 -0.6 99
2020-01-08 01:00:00 2.9 7 Sudeste 9 Sudeste 0 1027.6 -0.7 98
2020-01-08 00:00:00 3.3 5 Sudeste 8 Sudeste 0 1027.7 -0.4 98
2020-01-07 23:00:00 3.5 3 Este 8 Sudeste 0 1027.9 -0.2 97
2020-01-07 22:00:00 3.9 4 Sudeste 8 Sudeste 0 1028.3 0.4 97
2020-01-07 21:00:00 4.8 3 Sudeste 7 Sudeste 0 1028.1 0.7 96
2020-01-07 20:00:00 6 3 Sudeste 8 Sudeste 0 1028.1 0.9 94
2020-01-07 19:00:00 7.5 6 Sudeste 8 Sudeste 0 1027.9 0.6 91
2020-01-07 18:00:00 11 0 Calma 7 Noroeste 0 1027.4 -0.1 79
2020-01-07 17:00:00 13.9 3 Norte 10 Norte 0 1027.2 -0.8 63
2020-01-07 16:00:00 13.8 8 Norte 10 Nordeste 0 1027.3 -1.5 65
2020-01-07 15:00:00 14.6 4 Norte 8 Norte 0 1027.5 -2 52
2020-01-07 14:00:00 13.8 4 Noroeste 7 Noroeste 0 1028 -1.5 53
2020-01-07 13:00:00 12.7 2 Norte 4 Sudeste 0 1028.8 -0.3 60
2020-01-07 12:00:00 9.8 0 Calma 6 Sudeste 0 1029.5 1.3 71
2020-01-07 11:00:00 5.7 3 Sudeste 5 Sudeste 0 1029.5 1.9 100
2020-01-07 10:00:00 1.8 2 Sur 7 Este 0 1029.1 1.8 100
2020-01-07 09:00:00 0.8 4 Sudeste 8 Sudeste 0 1028.2 0.7 100
2020-01-07 08:00:00 1.1 5 Sudeste 8 Sudeste 0 1027.6 -- 100
2020-01-07 07:00:00 1.1 4 Sudeste 7 Sudeste 0 1027.3 -0.9 100
2020-01-07 06:00:00 1.8 3 Sudeste -- -- -- 1027.5 -0.5 100
2020-01-07 05:00:00 -- -- -- -- -- -- -- -- --
2020-01-07 04:00:00 1.3 3 Sudeste -- -- -- 1028.2 0.1 100
2020-01-07 03:00:00 1.5 0 Calma 6 Sudeste 0 1028 -0.8 100
2020-01-07 02:00:00 1.8 4 Sudeste 8 Sudeste 0 1028 -- 100
2020-01-07 01:00:00 2.1 0 Calma 7 Sudeste 0 1028.1 -- 100
2020-01-07 00:00:00 2.5 0 Calma 6 Sudeste 0 1028.8 0.4 100
2020-01-06 23:00:00 -- -- -- -- -- -- -- -- --
2020-01-06 22:00:00 -- -- -- -- -- -- -- -- --
2020-01-06 21:00:00 3.7 4 Este 6 Sudeste 0 1028.4 -- 97
2020-01-06 20:00:00 4.8 4 Este 7 Sudoeste 0 1028.2 2.1 94
2020-01-06 19:00:00 6.4 4 Este 10 Sudeste 0 1027.9 -- 90
2020-01-06 18:00:00 -- -- -- -- -- -- -- -- --
2020-01-06 17:00:00 12.2 9 Norte -- -- -- 1026.1 0.6 66
2020-01-06 16:00:00 -- -- -- -- -- -- -- -- --
2020-01-06 15:00:00 -- -- -- -- -- -- -- -- --
2020-01-06 14:00:00 11.8 5 Oeste 14 Oeste 0 1025.5 -0.2 70
2020-01-06 13:00:00 11.8 5 Sudoeste 13 Sur 0 1026 -- 71
2020-01-06 12:00:00 9.9 2 Sur 6 Norte 0 1026 -- 85
2020-01-06 11:00:00 7.1 0 Calma 6 Noroeste 0 1025.7 0.5 93
2020-01-06 10:00:00 -- -- -- -- -- -- -- -- --